createdAt,value
2023-03-16T00:00:39.653Z,991.832
2023-03-16T00:01:39.343Z,991.787
2023-03-16T00:02:38.982Z,991.803
2023-03-16T00:03:39.693Z,991.708
2023-03-16T00:04:39.323Z,991.839
2023-03-16T00:05:39.877Z,991.737
2023-03-16T00:06:39.420Z,991.672
2023-03-16T00:07:39.932Z,991.801
2023-03-16T00:08:39.493Z,991.839
2023-03-16T00:09:38.984Z,991.793
2023-03-16T00:10:39.488Z,991.732
2023-03-16T00:11:39.124Z,991.678
2023-03-16T00:12:39.615Z,991.840
2023-03-16T00:13:39.287Z,991.780
2023-03-16T00:14:39.867Z,991.906
2023-03-16T00:15:39.367Z,991.884
2023-03-16T00:16:39.254Z,991.894
2023-03-16T00:17:39.040Z,991.881
2023-03-16T00:18:39.582Z,991.929
2023-03-16T00:19:39.099Z,991.929
2023-03-16T00:20:39.677Z,991.818
2023-03-16T00:21:39.342Z,991.930
2023-03-16T00:22:39.144Z,991.809
2023-03-16T00:23:39.945Z,991.915
2023-03-16T00:24:39.469Z,991.968
2023-03-16T00:25:39.237Z,991.898
2023-03-16T00:26:39.055Z,991.694
2023-03-16T00:27:39.668Z,991.777
2023-03-16T00:28:39.209Z,991.792
2023-03-16T00:29:39.750Z,991.882
2023-03-16T00:30:39.400Z,991.827
2023-03-16T00:31:39.085Z,991.875
2023-03-16T00:32:39.795Z,991.827
2023-03-16T00:33:39.477Z,991.756
2023-03-16T00:34:39.920Z,991.852
2023-03-16T00:35:39.460Z,991.757
2023-03-16T00:36:39.081Z,991.733
2023-03-16T00:37:39.963Z,991.870
2023-03-16T00:38:39.600Z,991.883
2023-03-16T00:39:39.408Z,991.656
2023-03-16T00:40:39.052Z,991.735
2023-03-16T00:41:39.576Z,991.636
2023-03-16T00:42:39.132Z,991.688
2023-03-16T00:43:39.860Z,991.748
2023-03-16T00:44:39.447Z,991.650
2023-03-16T00:45:39.178Z,991.561
2023-03-16T00:46:39.943Z,991.604
2023-03-16T00:47:39.572Z,991.746
2023-03-16T00:48:39.077Z,991.741
2023-03-16T00:49:39.625Z,991.703
2023-03-16T00:50:39.168Z,991.669
2023-03-16T00:51:39.727Z,991.701
2023-03-16T00:52:39.310Z,991.521
2023-03-16T00:53:39.966Z,991.674
2023-03-16T00:54:39.633Z,991.598
2023-03-16T00:55:39.133Z,991.563
2023-03-16T00:56:39.678Z,991.723
2023-03-16T00:57:39.405Z,991.511
2023-03-16T00:58:39.901Z,991.693
2023-03-16T00:59:39.500Z,991.531
2023-03-16T01:00:39.118Z,991.614
2023-03-16T01:01:39.174Z,991.580
2023-03-16T01:02:39.856Z,991.747
2023-03-16T01:03:39.766Z,991.691
2023-03-16T01:04:39.381Z,991.729
2023-03-16T01:05:39.938Z,991.690
2023-03-16T01:06:39.927Z,991.647
2023-03-16T01:07:39.420Z,991.719
2023-03-16T01:08:39.073Z,991.623
2023-03-16T01:09:39.645Z,991.577
2023-03-16T01:10:39.240Z,991.683
2023-03-16T01:11:39.784Z,991.549
2023-03-16T01:12:39.488Z,991.705
2023-03-16T01:13:39.083Z,991.698
2023-03-16T01:14:39.856Z,991.725
2023-03-16T01:15:39.582Z,991.793
2023-03-16T01:16:39.211Z,991.680
2023-03-16T01:17:39.753Z,991.650
2023-03-16T01:18:39.309Z,991.646
2023-03-16T01:19:39.889Z,991.679
2023-03-16T01:20:39.884Z,991.576
2023-03-16T01:21:39.428Z,991.594
2023-03-16T01:22:39.979Z,991.463
2023-03-16T01:23:39.501Z,991.635
2023-03-16T01:24:39.046Z,991.525
2023-03-16T01:25:39.597Z,991.458
2023-03-16T01:26:39.190Z,991.669
2023-03-16T01:27:39.711Z,991.663
2023-03-16T01:28:39.333Z,991.695
2023-03-16T01:29:39.872Z,991.698
2023-03-16T01:30:39.558Z,991.661
2023-03-16T01:31:39.408Z,991.574
2023-03-16T01:32:39.951Z,991.651
2023-03-16T01:33:39.648Z,991.695
2023-03-16T01:34:39.373Z,991.723
2023-03-16T01:35:39.913Z,991.681
2023-03-16T01:36:39.733Z,991.620
2023-03-16T01:37:39.289Z,991.623
2023-03-16T01:38:39.742Z,991.477
2023-03-16T01:39:39.372Z,991.657
2023-03-16T01:40:39.038Z,991.766
2023-03-16T01:41:39.548Z,991.773
2023-03-16T01:42:39.209Z,991.666
2023-03-16T01:43:39.751Z,991.706
2023-03-16T01:44:39.418Z,991.655
2023-03-16T01:45:39.897Z,991.637
2023-03-16T01:46:40.059Z,991.745
2023-03-16T01:47:39.718Z,991.552
2023-03-16T01:48:39.228Z,991.723
2023-03-16T01:49:39.843Z,991.640
2023-03-16T01:50:39.437Z,991.677
2023-03-16T01:51:39.973Z,991.724
2023-03-16T01:52:39.509Z,991.579
2023-03-16T01:53:39.019Z,991.629
2023-03-16T01:54:39.674Z,991.552
2023-03-16T01:55:39.165Z,991.668
2023-03-16T01:56:39.722Z,991.574
2023-03-16T01:57:39.397Z,991.572
2023-03-16T01:58:39.973Z,991.570
2023-03-16T01:59:39.838Z,991.524
2023-03-16T02:00:39.397Z,991.619
2023-03-16T02:01:39.069Z,991.626
2023-03-16T02:02:39.816Z,991.589
2023-03-16T02:03:39.363Z,991.632
2023-03-16T02:04:39.032Z,991.525
2023-03-16T02:05:39.732Z,991.562
2023-03-16T02:06:39.400Z,991.608
2023-03-16T02:07:38.981Z,991.532
2023-03-16T02:08:39.466Z,991.425
2023-03-16T02:09:39.048Z,991.474
2023-03-16T02:10:39.544Z,991.406
2023-03-16T02:11:39.156Z,991.349
2023-03-16T02:12:39.771Z,991.428
2023-03-16T02:13:39.321Z,991.478
2023-03-16T02:14:39.965Z,991.477
2023-03-16T02:15:39.513Z,991.485
2023-03-16T02:16:39.311Z,991.582
2023-03-16T02:17:39.832Z,991.444
2023-03-16T02:18:39.369Z,991.447
2023-03-16T02:19:39.983Z,991.681
2023-03-16T02:20:39.592Z,991.521
2023-03-16T02:21:39.037Z,991.541
2023-03-16T02:22:39.728Z,991.361
2023-03-16T02:23:39.257Z,991.642
2023-03-16T02:24:39.749Z,991.608
2023-03-16T02:25:39.418Z,991.635
2023-03-16T02:26:39.019Z,991.629
2023-03-16T02:27:39.510Z,991.606
2023-03-16T02:28:39.071Z,991.577
2023-03-16T02:29:39.681Z,991.534
2023-03-16T02:30:39.236Z,991.614
2023-03-16T02:31:39.190Z,991.530
2023-03-16T02:32:39.815Z,991.586
2023-03-16T02:33:39.525Z,991.555
2023-03-16T02:34:39.160Z,991.644
2023-03-16T02:35:39.846Z,991.553
2023-03-16T02:36:39.609Z,991.689
2023-03-16T02:37:39.132Z,991.691
2023-03-16T02:38:39.708Z,991.636
2023-03-16T02:39:39.337Z,991.589
2023-03-16T02:40:39.907Z,991.600
2023-03-16T02:41:39.478Z,991.548
2023-03-16T02:42:39.009Z,991.588
2023-03-16T02:43:39.581Z,991.499
2023-03-16T02:44:39.153Z,991.580
2023-03-16T02:45:39.749Z,991.568
2023-03-16T02:46:39.417Z,991.509
2023-03-16T02:47:39.907Z,991.646
2023-03-16T02:48:39.453Z,991.516
2023-03-16T02:49:39.024Z,991.474
2023-03-16T02:50:39.572Z,991.467
2023-03-16T02:51:39.209Z,991.395
2023-03-16T02:52:39.653Z,991.523
2023-03-16T02:53:39.206Z,991.434
2023-03-16T02:54:39.749Z,991.551
2023-03-16T02:55:39.400Z,991.596
2023-03-16T02:56:39.923Z,991.498
2023-03-16T02:57:39.459Z,991.413
2023-03-16T02:58:39.940Z,991.260
2023-03-16T02:59:40.009Z,991.424
2023-03-16T03:00:39.617Z,991.416
2023-03-16T03:01:39.132Z,991.406
2023-03-16T03:02:39.672Z,991.319
2023-03-16T03:03:39.735Z,991.407
2023-03-16T03:04:39.272Z,991.256
2023-03-16T03:05:39.996Z,991.331
2023-03-16T03:06:39.756Z,991.412
2023-03-16T03:07:39.329Z,991.365
2023-03-16T03:08:39.882Z,991.300
2023-03-16T03:09:39.592Z,991.244
2023-03-16T03:10:39.254Z,991.462
2023-03-16T03:11:39.066Z,991.389
2023-03-16T03:12:39.780Z,991.337
2023-03-16T03:13:39.588Z,991.353
2023-03-16T03:14:39.118Z,991.308
2023-03-16T03:15:39.768Z,991.393
2023-03-16T03:16:39.783Z,991.376
2023-03-16T03:17:39.447Z,991.372
2023-03-16T03:18:39.983Z,991.352
2023-03-16T03:19:39.666Z,991.280
2023-03-16T03:20:39.382Z,991.248
2023-03-16T03:21:39.917Z,991.260
2023-03-16T03:22:39.481Z,991.203
2023-03-16T03:23:39.084Z,991.307
2023-03-16T03:24:39.821Z,991.230
2023-03-16T03:25:39.406Z,991.341
2023-03-16T03:26:39.952Z,991.465
2023-03-16T03:27:39.626Z,991.448
2023-03-16T03:28:39.293Z,991.413
2023-03-16T03:29:39.816Z,991.298
2023-03-16T03:30:39.516Z,991.524
2023-03-16T03:31:39.334Z,991.498
2023-03-16T03:32:40.044Z,991.612
2023-03-16T03:33:39.787Z,991.586
2023-03-16T03:34:39.268Z,991.563
2023-03-16T03:35:39.826Z,991.574
2023-03-16T03:36:39.601Z,991.464
2023-03-16T03:37:39.217Z,991.414
2023-03-16T03:38:39.744Z,991.499
2023-03-16T03:39:39.306Z,991.410
2023-03-16T03:40:39.900Z,991.498
2023-03-16T03:41:39.613Z,991.468
2023-03-16T03:42:39.178Z,991.391
2023-03-16T03:43:39.884Z,991.352
2023-03-16T03:44:39.705Z,991.570
2023-03-16T03:45:39.486Z,991.546
2023-03-16T03:46:39.998Z,991.487
2023-03-16T03:47:39.857Z,991.516
2023-03-16T03:48:39.601Z,991.593
2023-03-16T03:49:39.175Z,991.483
2023-03-16T03:50:39.841Z,991.522
2023-03-16T03:51:39.371Z,991.437
2023-03-16T03:52:39.921Z,991.523
2023-03-16T03:53:39.568Z,991.518
2023-03-16T03:54:39.200Z,991.526
2023-03-16T03:55:39.897Z,991.562
2023-03-16T03:56:39.524Z,991.559
2023-03-16T03:57:39.209Z,991.657
2023-03-16T03:58:39.788Z,991.494
2023-03-16T03:59:39.404Z,991.452
2023-03-16T04:00:39.087Z,991.540
2023-03-16T04:01:39.760Z,991.391
2023-03-16T04:02:39.268Z,991.428
2023-03-16T04:03:39.720Z,991.469
2023-03-16T04:04:39.264Z,991.421
2023-03-16T04:05:39.959Z,991.427
2023-03-16T04:06:39.718Z,991.309
2023-03-16T04:07:39.562Z,991.255
2023-03-16T04:08:39.140Z,991.340
2023-03-16T04:09:39.732Z,991.338
2023-03-16T04:10:39.348Z,991.500
2023-03-16T04:11:39.005Z,991.359
2023-03-16T04:12:39.549Z,991.354
2023-03-16T04:13:39.094Z,991.369
2023-03-16T04:14:39.935Z,991.383
2023-03-16T04:15:39.581Z,991.235
2023-03-16T04:16:40.213Z,991.352
2023-03-16T04:17:40.219Z,991.306
2023-03-16T04:18:39.577Z,991.256
2023-03-16T04:19:39.243Z,991.214
2023-03-16T04:20:39.224Z,991.216
2023-03-16T04:21:39.869Z,991.257
2023-03-16T04:22:39.391Z,991.198
2023-03-16T04:23:39.117Z,991.273
2023-03-16T04:24:39.800Z,991.371
2023-03-16T04:25:39.412Z,991.336
2023-03-16T04:26:39.921Z,991.342
2023-03-16T04:27:39.633Z,991.306
2023-03-16T04:28:39.242Z,991.343
2023-03-16T04:29:39.717Z,991.326
2023-03-16T04:30:39.405Z,991.292
2023-03-16T04:31:39.068Z,991.351
2023-03-16T04:32:39.565Z,991.257
2023-03-16T04:33:39.521Z,991.318
2023-03-16T04:34:39.132Z,991.352
2023-03-16T04:35:39.797Z,991.315
2023-03-16T04:36:39.691Z,991.321
2023-03-16T04:37:39.301Z,991.266
2023-03-16T04:38:39.881Z,991.223
2023-03-16T04:39:39.430Z,991.193
2023-03-16T04:40:39.013Z,991.245
2023-03-16T04:41:39.617Z,991.179
2023-03-16T04:42:39.089Z,991.250
2023-03-16T04:43:39.632Z,991.209
2023-03-16T04:44:39.247Z,991.221
2023-03-16T04:45:39.849Z,991.115
2023-03-16T04:46:39.751Z,991.060
2023-03-16T04:47:39.373Z,991.184
2023-03-16T04:48:39.069Z,991.237
2023-03-16T04:49:39.753Z,991.331
2023-03-16T04:50:39.616Z,991.219
2023-03-16T04:51:39.185Z,991.234
2023-03-16T04:52:39.705Z,991.201
2023-03-16T04:53:39.259Z,991.220
2023-03-16T04:54:39.800Z,991.199
2023-03-16T04:55:39.397Z,991.187
2023-03-16T04:56:39.248Z,991.253
2023-03-16T04:57:39.736Z,991.148
2023-03-16T04:58:39.265Z,991.163
2023-03-16T04:59:39.808Z,991.081
2023-03-16T05:00:39.408Z,991.093
2023-03-16T05:01:39.214Z,991.148
2023-03-16T05:02:39.888Z,991.122
2023-03-16T05:03:39.492Z,991.234
2023-03-16T05:04:39.526Z,991.165
2023-03-16T05:05:39.268Z,991.274
2023-03-16T05:06:39.942Z,991.197
2023-03-16T05:07:39.504Z,991.193
2023-03-16T05:08:39.085Z,991.230
2023-03-16T05:09:39.560Z,991.172
2023-03-16T05:10:39.175Z,991.147
2023-03-16T05:11:39.857Z,991.072
2023-03-16T05:12:39.394Z,991.107
2023-03-16T05:13:39.072Z,991.111
2023-03-16T05:14:39.862Z,991.125
2023-03-16T05:15:39.404Z,991.097
2023-03-16T05:16:39.310Z,991.253
2023-03-16T05:17:39.841Z,991.158
2023-03-16T05:18:39.356Z,991.046
2023-03-16T05:19:39.896Z,991.056
2023-03-16T05:20:39.537Z,991.151
2023-03-16T05:21:39.407Z,990.993
2023-03-16T05:22:39.941Z,990.980
2023-03-16T05:23:39.568Z,990.963
2023-03-16T05:24:39.176Z,990.953
2023-03-16T05:25:39.122Z,990.912
2023-03-16T05:26:39.965Z,991.001
2023-03-16T05:27:39.533Z,990.912
2023-03-16T05:28:39.305Z,990.995
2023-03-16T05:29:39.851Z,990.898
2023-03-16T05:30:39.422Z,990.833
2023-03-16T05:31:39.267Z,990.867
2023-03-16T05:32:39.901Z,990.884
2023-03-16T05:33:39.638Z,990.914
2023-03-16T05:34:39.388Z,990.912
2023-03-16T05:35:39.103Z,991.030
2023-03-16T05:36:39.258Z,991.048
2023-03-16T05:37:39.798Z,991.008
2023-03-16T05:38:39.373Z,990.965
2023-03-16T05:39:39.853Z,991.046
2023-03-16T05:40:39.671Z,991.137
2023-03-16T05:41:39.353Z,991.092
2023-03-16T05:42:39.370Z,990.990
2023-03-16T05:43:39.055Z,990.945
2023-03-16T05:44:39.647Z,991.110
2023-03-16T05:45:39.361Z,991.073
2023-03-16T05:46:39.077Z,991.004
2023-03-16T05:47:39.809Z,990.946
2023-03-16T05:48:39.060Z,991.183
2023-03-16T05:49:39.623Z,991.063
2023-03-16T05:50:39.605Z,991.164
2023-03-16T05:51:39.126Z,991.062
2023-03-16T05:52:39.674Z,991.115
2023-03-16T05:53:39.300Z,991.077
2023-03-16T05:54:39.799Z,991.164
2023-03-16T05:55:39.377Z,991.041
2023-03-16T05:56:39.873Z,991.025
2023-03-16T05:57:39.471Z,991.068
2023-03-16T05:58:39.021Z,991.096
2023-03-16T05:59:39.550Z,991.091
2023-03-16T06:00:39.346Z,991.123
2023-03-16T06:01:39.962Z,991.200
2023-03-16T06:02:39.537Z,991.225
2023-03-16T06:03:39.791Z,991.136
2023-03-16T06:04:39.747Z,991.177
2023-03-16T06:05:39.638Z,991.272
2023-03-16T06:06:39.413Z,991.357
2023-03-16T06:07:39.122Z,991.344
2023-03-16T06:08:39.841Z,991.146
2023-03-16T06:09:39.663Z,991.271
2023-03-16T06:10:39.461Z,991.240
2023-03-16T06:11:39.348Z,991.306
2023-03-16T06:12:39.065Z,991.291
2023-03-16T06:13:39.087Z,991.302
2023-03-16T06:14:39.822Z,991.401
2023-03-16T06:15:39.565Z,991.358
2023-03-16T06:16:39.702Z,991.398
2023-03-16T06:17:39.337Z,991.472
2023-03-16T06:18:39.974Z,991.481
2023-03-16T06:19:40.010Z,991.554
2023-03-16T06:20:39.593Z,991.536
2023-03-16T06:21:39.187Z,991.640
2023-03-16T06:22:39.980Z,991.641
2023-03-16T06:23:39.561Z,991.608
2023-03-16T06:24:39.173Z,991.608
2023-03-16T06:25:40.779Z,991.552
2023-03-16T06:26:39.436Z,991.641
2023-03-16T06:27:40.025Z,991.710
2023-03-16T06:28:39.641Z,991.717
2023-03-16T06:29:39.320Z,991.755
2023-03-16T06:30:39.094Z,991.690
2023-03-16T06:31:39.076Z,991.724
2023-03-16T06:32:39.939Z,991.667
2023-03-16T06:33:39.869Z,991.784
2023-03-16T06:34:39.447Z,991.816
2023-03-16T06:35:39.284Z,991.878
2023-03-16T06:36:40.126Z,991.747
2023-03-16T06:37:39.812Z,991.752
2023-03-16T06:38:39.373Z,991.818
2023-03-16T06:39:39.968Z,991.801
2023-03-16T06:40:39.680Z,991.898
2023-03-16T06:41:39.232Z,991.883
2023-03-16T06:42:39.807Z,991.921
2023-03-16T06:43:39.389Z,991.781
2023-03-16T06:44:39.990Z,991.847
2023-03-16T06:45:39.697Z,991.864
2023-03-16T06:46:39.685Z,991.865
2023-03-16T06:47:39.231Z,991.848
2023-03-16T06:48:39.733Z,991.856
2023-03-16T06:49:39.355Z,991.874
2023-03-16T06:50:39.098Z,991.758
2023-03-16T06:51:39.453Z,991.648
2023-03-16T06:52:39.963Z,991.635
2023-03-16T06:53:39.486Z,991.754
2023-03-16T06:54:39.129Z,991.809
2023-03-16T06:55:39.689Z,991.841
2023-03-16T06:56:39.298Z,991.871
2023-03-16T06:57:39.774Z,991.957
2023-03-16T06:58:39.305Z,991.917
2023-03-16T06:59:39.775Z,992.046
2023-03-16T07:00:39.483Z,991.975
2023-03-16T07:01:39.334Z,991.901
2023-03-16T07:02:39.938Z,991.981
2023-03-16T07:03:39.044Z,991.989
2023-03-16T07:04:39.816Z,991.981
2023-03-16T07:05:39.601Z,991.939
2023-03-16T07:06:39.192Z,991.964
2023-03-16T07:07:39.705Z,991.992
2023-03-16T07:08:39.234Z,992.095
2023-03-16T07:09:41.505Z,992.030
2023-03-16T07:10:39.294Z,992.135
2023-03-16T07:11:39.769Z,991.977
2023-03-16T07:12:39.257Z,992.074
2023-03-16T07:13:39.930Z,992.167
2023-03-16T07:14:39.721Z,992.177
2023-03-16T07:15:39.528Z,992.147
2023-03-16T07:16:39.410Z,992.028
2023-03-16T07:17:39.481Z,992.094
2023-03-16T07:18:39.094Z,992.028
2023-03-16T07:19:39.729Z,991.978
2023-03-16T07:20:39.418Z,991.985
2023-03-16T07:21:40.000Z,992.090
2023-03-16T07:22:39.556Z,992.091
2023-03-16T07:23:39.338Z,992.038
2023-03-16T07:24:39.879Z,992.127
2023-03-16T07:25:39.564Z,992.024
2023-03-16T07:26:39.190Z,992.155
2023-03-16T07:27:39.977Z,992.160
2023-03-16T07:28:40.880Z,992.147
2023-03-16T07:29:39.622Z,992.098
2023-03-16T07:30:39.243Z,992.199
2023-03-16T07:31:39.988Z,992.272
2023-03-16T07:32:39.795Z,992.096
2023-03-16T07:33:39.507Z,992.117
2023-03-16T07:34:39.107Z,992.101
2023-03-16T07:35:39.240Z,992.146
2023-03-16T07:36:39.976Z,992.129
2023-03-16T07:37:39.173Z,992.122
2023-03-16T07:38:39.748Z,992.138
2023-03-16T07:39:39.489Z,992.139
2023-03-16T07:40:39.113Z,992.156
2023-03-16T07:41:39.673Z,992.087
2023-03-16T07:42:39.299Z,992.218
2023-03-16T07:43:39.929Z,992.209
2023-03-16T07:44:39.645Z,992.184
2023-03-16T07:45:39.215Z,992.088
2023-03-16T07:46:39.099Z,992.165
2023-03-16T07:47:39.672Z,992.177
2023-03-16T07:48:39.250Z,992.127
2023-03-16T07:49:39.866Z,992.064
2023-03-16T07:50:39.727Z,992.128
2023-03-16T07:51:39.670Z,992.167
2023-03-16T07:52:39.349Z,992.020
2023-03-16T07:53:39.994Z,992.081
2023-03-16T07:54:39.601Z,992.101
2023-03-16T07:55:39.166Z,991.966
2023-03-16T07:56:48.624Z,992.159
2023-03-16T07:57:40.430Z,992.089
2023-03-16T07:58:39.600Z,992.239
2023-03-16T07:59:39.637Z,992.202
2023-03-16T08:00:39.520Z,992.180
2023-03-16T08:01:39.185Z,992.143
2023-03-16T08:02:40.013Z,992.003
2023-03-16T08:03:40.027Z,992.151
2023-03-16T08:04:39.783Z,992.164
2023-03-16T08:05:39.471Z,992.098
2023-03-16T08:06:39.301Z,992.024
2023-03-16T08:07:39.160Z,992.150
2023-03-16T08:08:39.790Z,992.115
2023-03-16T08:09:39.558Z,992.124
2023-03-16T08:10:39.361Z,991.984
2023-03-16T08:11:39.973Z,991.974
2023-03-16T08:12:39.706Z,992.062
2023-03-16T08:13:39.532Z,992.063
2023-03-16T08:14:39.173Z,992.044
2023-03-16T08:15:39.929Z,991.897
2023-03-16T08:16:39.785Z,992.052
2023-03-16T08:17:39.485Z,991.959
2023-03-16T08:18:39.132Z,992.089
2023-03-16T08:19:39.754Z,992.176
2023-03-16T08:20:39.476Z,992.084
2023-03-16T08:21:48.808Z,992.063
2023-03-16T08:22:39.309Z,992.101
2023-03-16T08:23:39.970Z,992.012
2023-03-16T08:24:39.907Z,992.082
2023-03-16T08:25:39.628Z,992.133
2023-03-16T08:26:39.653Z,992.125
2023-03-16T08:27:39.316Z,992.136
2023-03-16T08:28:39.983Z,992.158
2023-03-16T08:29:39.771Z,992.135
2023-03-16T08:30:39.357Z,992.184
2023-03-16T08:31:39.426Z,992.233
2023-03-16T08:32:39.146Z,992.176
2023-03-16T08:33:39.885Z,992.119
2023-03-16T08:34:39.776Z,992.062
2023-03-16T08:35:39.472Z,992.121
2023-03-16T08:36:39.848Z,992.004
2023-03-16T08:37:39.466Z,992.059
2023-03-16T08:38:39.074Z,991.984
2023-03-16T08:39:39.817Z,991.993
2023-03-16T08:40:39.472Z,991.966
2023-03-16T08:41:39.192Z,991.929
2023-03-16T08:42:39.953Z,992.047
2023-03-16T08:43:39.709Z,992.052
2023-03-16T08:44:39.377Z,991.969
2023-03-16T08:45:39.223Z,991.970
2023-03-16T08:46:39.288Z,991.980
2023-03-16T08:47:40.002Z,991.970
2023-03-16T08:48:39.617Z,992.021
2023-03-16T08:49:39.334Z,992.005
2023-03-16T08:50:40.016Z,992.056
2023-03-16T08:51:39.660Z,991.918
2023-03-16T08:52:39.205Z,991.995
2023-03-16T08:53:39.753Z,991.904
2023-03-16T08:54:39.324Z,991.928
2023-03-16T08:55:39.464Z,992.066
2023-03-16T08:56:39.300Z,991.913
2023-03-16T08:57:39.891Z,992.014
2023-03-16T08:58:39.611Z,991.986
2023-03-16T09:00:44.332Z,992.003
2023-03-16T09:01:42.894Z,992.085
2023-03-16T09:02:42.148Z,992.080
2023-03-16T09:03:42.859Z,992.106
2023-03-16T09:04:42.954Z,992.021
2023-03-16T09:05:42.636Z,992.093
2023-03-16T09:06:42.558Z,992.118
2023-03-16T09:07:42.976Z,992.102
2023-03-16T09:08:42.537Z,992.143
2023-03-16T09:09:42.120Z,992.109
2023-03-16T09:10:42.764Z,992.110
2023-03-16T09:11:42.286Z,992.071
2023-03-16T09:12:42.853Z,992.148
2023-03-16T09:13:42.429Z,992.212
2023-03-16T09:14:42.034Z,992.084
2023-03-16T09:15:42.631Z,992.116
2023-03-16T09:16:42.844Z,992.035
2023-03-16T09:17:42.544Z,992.026
2023-03-16T09:18:42.171Z,992.028
2023-03-16T09:19:51.926Z,992.035
2023-03-16T09:21:49.862Z,991.991
2023-03-16T09:22:49.497Z,992.024
2023-03-16T09:23:49.071Z,991.996
2023-03-16T09:24:49.688Z,992.044
2023-03-16T09:25:49.825Z,991.956
2023-03-16T09:26:49.617Z,991.913
2023-03-16T09:27:49.420Z,991.901
2023-03-16T09:28:49.030Z,992.044
2023-03-16T09:29:49.860Z,991.947
2023-03-16T09:30:49.524Z,991.899
2023-03-16T09:31:49.445Z,991.976
2023-03-16T09:32:49.369Z,991.927
2023-03-16T09:33:49.284Z,991.970
2023-03-16T09:34:49.517Z,991.901
2023-03-16T09:35:49.177Z,991.914
2023-03-16T09:36:49.921Z,991.925
2023-03-16T09:38:05.029Z,991.896
2023-03-16T09:38:49.881Z,991.879
2023-03-16T09:39:49.526Z,991.927
2023-03-16T09:40:49.153Z,991.905
2023-03-16T09:41:49.754Z,991.889
2023-03-16T09:42:49.426Z,991.993
2023-03-16T09:43:49.941Z,991.906
2023-03-16T09:44:49.677Z,992.103
2023-03-16T09:45:49.447Z,991.984
2023-03-16T09:46:49.431Z,992.019
2023-03-16T09:47:49.130Z,991.955
2023-03-16T09:48:49.661Z,991.989
2023-03-16T09:49:49.308Z,991.987
2023-03-16T09:51:49.059Z,991.802
2023-03-16T09:52:49.624Z,991.834
2023-03-16T09:53:49.271Z,991.745
2023-03-16T09:54:49.920Z,991.866
2023-03-16T09:55:49.976Z,991.771
2023-03-16T09:56:49.673Z,991.762
2023-03-16T09:57:49.212Z,991.820
2023-03-16T09:58:49.732Z,991.802
2023-03-16T09:59:49.673Z,991.810
2023-03-16T10:00:49.839Z,991.772
2023-03-16T10:01:49.862Z,991.834
2023-03-16T10:02:49.413Z,991.843
2023-03-16T10:03:49.067Z,991.838
2023-03-16T10:04:49.900Z,991.863
2023-03-16T10:05:49.590Z,991.801
2023-03-16T10:06:49.172Z,991.687
2023-03-16T10:07:49.664Z,991.669
2023-03-16T10:08:49.312Z,991.703
2023-03-16T10:09:49.881Z,991.771
2023-03-16T10:10:49.742Z,991.647
2023-03-16T10:11:49.374Z,991.883
2023-03-16T10:12:49.893Z,991.742
2023-03-16T10:13:49.565Z,991.904
2023-03-16T10:14:49.346Z,991.782
2023-03-16T10:15:49.221Z,991.708
2023-03-16T10:16:49.030Z,991.722
2023-03-16T10:17:49.629Z,991.786
2023-03-16T10:18:49.216Z,991.747
2023-03-16T10:19:49.768Z,991.781
2023-03-16T10:20:49.895Z,991.700
2023-03-16T10:21:49.348Z,991.669
2023-03-16T10:22:49.917Z,991.671
2023-03-16T10:23:49.619Z,991.667
2023-03-16T10:24:49.209Z,991.697
2023-03-16T10:25:50.026Z,991.434
2023-03-16T10:26:49.657Z,991.469
2023-03-16T10:27:49.288Z,991.692
2023-03-16T10:28:49.888Z,991.519
2023-03-16T10:29:49.387Z,991.550
2023-03-16T10:30:49.060Z,991.516
2023-03-16T10:31:49.853Z,991.421
2023-03-16T10:32:49.906Z,991.408
2023-03-16T10:33:49.268Z,991.479
2023-03-16T10:34:49.894Z,991.350
2023-03-16T10:35:49.961Z,991.433
2023-03-16T10:36:49.833Z,991.365
2023-03-16T10:37:49.505Z,991.552
2023-03-16T10:38:49.043Z,991.384
2023-03-16T10:39:49.629Z,991.430
2023-03-16T10:40:49.617Z,991.453
2023-03-16T10:41:49.365Z,991.332
2023-03-16T10:42:49.701Z,991.445
2023-03-16T10:43:49.313Z,991.433
2023-03-16T10:44:49.845Z,991.426
2023-03-16T10:45:50.052Z,991.305
2023-03-16T10:46:49.261Z,991.337
2023-03-16T10:47:49.209Z,991.365
2023-03-16T10:48:49.773Z,991.353
2023-03-16T10:49:49.388Z,991.261
2023-03-16T10:50:49.156Z,991.255
2023-03-16T10:51:49.762Z,991.314
2023-03-16T10:52:49.376Z,991.314
2023-03-16T10:53:49.999Z,991.447
2023-03-16T10:54:49.797Z,991.317
2023-03-16T10:55:49.767Z,991.406
2023-03-16T10:56:49.425Z,991.478
2023-03-16T10:57:49.065Z,991.509
2023-03-16T10:58:49.615Z,991.438
2023-03-16T10:59:49.135Z,991.495
2023-03-16T11:00:49.800Z,991.463
2023-03-16T11:01:49.700Z,991.306
2023-03-16T11:02:49.320Z,991.399
2023-03-16T11:03:49.902Z,991.430
2023-03-16T11:04:49.821Z,991.314
2023-03-16T11:05:49.985Z,991.373
2023-03-16T11:06:49.521Z,991.379
2023-03-16T11:07:49.320Z,991.280
2023-03-16T11:08:49.935Z,991.346
2023-03-16T11:09:49.655Z,991.221
2023-03-16T11:10:55.398Z,991.402
2023-03-16T11:11:49.795Z,991.370
2023-03-16T11:12:49.344Z,991.289
2023-03-16T11:13:49.962Z,991.375
2023-03-16T11:14:49.580Z,991.377
2023-03-16T11:16:49.173Z,991.379
2023-03-16T11:17:49.856Z,991.407
2023-03-16T11:18:49.553Z,991.492
2023-03-16T11:19:49.621Z,991.439
2023-03-16T11:20:49.262Z,991.384
2023-03-16T11:21:49.888Z,991.419
2023-03-16T11:22:49.503Z,991.356
2023-03-16T11:23:49.047Z,991.415
2023-03-16T11:24:49.793Z,991.396
2023-03-16T11:25:49.728Z,991.453
2023-03-16T11:26:49.932Z,991.316
2023-03-16T11:27:49.464Z,991.343
2023-03-16T11:28:49.960Z,991.369
2023-03-16T11:29:49.525Z,991.271
2023-03-16T11:30:49.157Z,991.254
2023-03-16T11:31:49.040Z,991.311
2023-03-16T11:32:49.686Z,991.326
2023-03-16T11:33:49.434Z,991.255
2023-03-16T11:34:49.269Z,991.172
2023-03-16T11:35:58.229Z,991.207
2023-03-16T11:36:49.908Z,991.191
2023-03-16T11:37:49.584Z,991.132
2023-03-16T11:38:49.076Z,991.287
2023-03-16T11:39:49.669Z,991.208
2023-03-16T11:40:49.354Z,991.283
2023-03-16T11:41:49.996Z,991.187
2023-03-16T11:42:49.742Z,991.171
2023-03-16T11:43:49.321Z,991.150
2023-03-16T11:44:50.586Z,991.148
2023-03-16T11:45:49.685Z,990.837
2023-03-16T11:46:49.504Z,991.130
2023-03-16T11:47:49.108Z,991.066
2023-03-16T11:48:49.616Z,991.213
2023-03-16T11:49:49.149Z,991.161
2023-03-16T11:50:49.747Z,991.077
2023-03-16T11:51:49.280Z,991.129
2023-03-16T11:52:49.812Z,991.072
2023-03-16T11:53:49.689Z,991.189
2023-03-16T11:54:49.370Z,991.212
2023-03-16T11:55:49.859Z,991.161
2023-03-16T11:56:49.455Z,991.165
2023-03-16T11:57:51.296Z,991.179
2023-03-16T11:58:49.196Z,991.197
2023-03-16T12:00:00.520Z,991.088
2023-03-16T12:00:49.568Z,991.135
2023-03-16T12:01:58.054Z,991.209
2023-03-16T12:02:49.694Z,991.188
2023-03-16T12:03:49.770Z,991.057
2023-03-16T12:04:49.762Z,991.019
2023-03-16T12:05:49.313Z,990.925
2023-03-16T12:06:49.786Z,990.940
2023-03-16T12:07:49.476Z,991.072
2023-03-16T12:08:49.110Z,991.058
2023-03-16T12:09:49.954Z,991.126